Terminal Aerodrome Forecast
Issued by NWS Billings, MT

Current Version | Previous Version | Text Only | Print | Product List | Glossary On
Versions: 1 2 3 4 5 6 7 8 9 10 11 12 13 14 15 16 17 18 19 20 21 22 23 24 25
000
FTUS45 KBYZ 211137
TAFBIL
TAF
KBIL 211137Z 2112/2212 23015KT P6SM VCSH SCT050 OVC150
      TEMPO 2114/2118 25020G40KT 5SM -SHRA BKN040
     FM211800 26020G35KT P6SM VCSH SCT050 BKN120 WS020/28060KT
     FM220800 27015G25KT P6SM SCT080 WS020/28050KT=

USA.gov is the U.S. government's official web portal to all federal, state and local government web resources and services.